createdAt,value
2023-04-11T00:03:39.406Z,2.97
2023-04-11T00:07:40.960Z,2.53
2023-04-11T00:11:43.139Z,3.63
2023-04-11T00:15:44.533Z,2.78
2023-04-11T00:19:46.556Z,2.75
2023-04-11T00:23:47.979Z,2.28
2023-04-11T00:27:49.340Z,2.05
2023-04-11T00:31:52.661Z,2.42
2023-04-11T00:35:54.260Z,2.28
2023-04-11T00:39:56.145Z,2.33
2023-04-11T00:43:58.610Z,2.50
2023-04-11T00:48:01.271Z,2.10
2023-04-11T00:52:04.010Z,2.33
2023-04-11T00:56:06.663Z,2.33
2023-04-11T01:00:10.500Z,2.50
2023-04-11T01:04:12.606Z,1.85
2023-04-11T01:08:14.802Z,2.17
2023-04-11T01:12:17.393Z,2.10
2023-04-11T01:16:22.051Z,1.70
2023-04-11T01:20:24.184Z,1.52
2023-04-11T01:24:25.906Z,2.03
2023-04-11T01:28:27.331Z,1.60
2023-04-11T01:32:28.882Z,2.70
2023-04-11T01:36:31.601Z,2.28
2023-04-11T01:40:33.220Z,1.98
2023-04-11T01:44:36.444Z,2.58
2023-04-11T01:48:38.985Z,2.13
2023-04-11T01:52:40.966Z,2.30
2023-04-11T01:56:43.254Z,1.80
2023-04-11T02:00:44.817Z,2.53
2023-04-11T02:04:46.444Z,2.25
2023-04-11T02:08:49.403Z,2.60
2023-04-11T02:12:50.868Z,1.90
2023-04-11T02:16:54.881Z,2.15
2023-04-11T02:20:56.303Z,3.05
2023-04-11T02:24:57.692Z,1.75
2023-04-11T02:28:59.568Z,2.40
2023-04-11T02:33:01.199Z,2.25
2023-04-11T02:37:02.713Z,2.03
2023-04-11T02:41:04.413Z,2.10
2023-04-11T02:45:08.245Z,2.40
2023-04-11T02:49:09.845Z,1.83
2023-04-11T02:53:11.826Z,2.30
2023-04-11T02:57:20.177Z,2.45
2023-04-11T03:01:24.786Z,1.83
2023-04-11T03:05:27.832Z,2.03
2023-04-11T03:09:29.253Z,3.15
2023-04-11T03:13:30.910Z,1.85
2023-04-11T03:17:33.940Z,1.55
2023-04-11T03:21:36.348Z,2.72
2023-04-11T03:25:38.915Z,2.38
2023-04-11T03:29:40.631Z,0.80
2023-04-11T03:33:49.362Z,2.10
2023-04-11T03:37:50.933Z,1.48
2023-04-11T03:41:52.503Z,1.67
2023-04-11T03:45:54.011Z,2.47
2023-04-11T03:50:09.878Z,1.88
2023-04-11T03:54:17.831Z,2.30
2023-04-11T03:58:19.538Z,1.83
2023-04-11T04:02:21.731Z,1.58
2023-04-11T04:06:26.922Z,1.45
2023-04-11T04:10:28.606Z,2.03
2023-04-11T04:14:30.119Z,1.70
2023-04-11T04:18:31.754Z,2.25
2023-04-11T04:22:35.071Z,2.00
2023-04-11T04:26:40.885Z,2.05
2023-04-11T04:31:04.066Z,1.92
2023-04-11T04:35:16.666Z,1.98
2023-04-11T04:39:19.356Z,2.13
2023-04-11T04:43:24.946Z,1.85
2023-04-11T04:47:35.742Z,2.23
2023-04-11T04:51:38.491Z,2.58
2023-04-11T04:55:40.534Z,2.00
2023-04-11T04:59:44.668Z,1.95
2023-04-11T05:03:50.879Z,1.67
2023-04-11T05:08:01.077Z,2.28
2023-04-11T05:12:06.695Z,2.42
2023-04-11T05:16:10.981Z,2.17
2023-04-11T05:20:13.517Z,2.50
2023-04-11T05:24:16.643Z,2.05
2023-04-11T05:28:18.494Z,1.95
2023-04-11T05:32:21.056Z,1.95
2023-04-11T05:36:23.041Z,1.88
2023-04-11T05:40:24.540Z,1.73
2023-04-11T05:44:25.997Z,1.80
2023-04-11T05:48:27.379Z,1.58
2023-04-11T05:52:28.848Z,2.20
2023-04-11T05:56:30.256Z,1.55
2023-04-11T06:00:32.398Z,2.78
2023-04-11T06:04:34.113Z,1.88
2023-04-11T06:08:35.769Z,2.13
2023-04-11T06:12:37.217Z,1.52
2023-04-11T06:16:38.858Z,2.03
2023-04-11T06:20:40.455Z,1.98
2023-04-11T06:24:42.075Z,2.28
2023-04-11T06:28:43.462Z,1.92
2023-04-11T06:32:45.190Z,2.72
2023-04-11T06:36:49.696Z,1.95
2023-04-11T06:40:52.185Z,1.88
2023-04-11T06:44:53.628Z,2.38
2023-04-11T06:48:56.013Z,1.55
2023-04-11T06:52:58.368Z,1.60
2023-04-11T06:56:59.936Z,1.45
2023-04-11T07:01:01.548Z,1.50
2023-04-11T07:05:03.638Z,1.10
2023-04-11T07:09:05.784Z,1.83
2023-04-11T07:13:07.157Z,1.70
2023-04-11T07:17:08.613Z,1.35
2023-04-11T07:21:13.860Z,1.00
2023-04-11T07:25:15.421Z,1.42
2023-04-11T07:29:16.783Z,1.75
2023-04-11T07:33:18.146Z,0.63
2023-04-11T07:37:19.568Z,1.17
2023-04-11T07:41:20.982Z,0.85
2023-04-11T07:45:22.586Z,1.08
2023-04-11T07:49:24.043Z,1.23
2023-04-11T07:53:27.048Z,1.20
2023-04-11T07:57:29.230Z,0.93
2023-04-11T08:01:31.204Z,0.90
2023-04-11T08:05:34.766Z,1.02
2023-04-11T08:09:36.260Z,1.00
2023-04-11T08:13:37.716Z,0.82
2023-04-11T08:17:40.909Z,1.20
2023-04-11T08:21:42.834Z,1.52
2023-04-11T08:25:44.604Z,1.05
2023-04-11T08:29:46.791Z,0.98
2023-04-11T08:33:48.505Z,1.15
2023-04-11T08:37:49.894Z,1.17
2023-04-11T08:41:51.517Z,1.60
2023-04-11T08:45:53.757Z,1.13
2023-04-11T08:49:56.491Z,1.67
2023-04-11T08:54:05.620Z,0.70
2023-04-11T08:58:06.994Z,1.77
2023-04-11T09:02:09.444Z,1.42
2023-04-11T09:06:11.384Z,1.77
2023-04-11T09:10:22.170Z,1.27
2023-04-11T09:14:27.025Z,1.27
2023-04-11T09:18:35.355Z,1.67
2023-04-11T09:22:36.931Z,1.15
2023-04-11T09:26:38.344Z,1.25
2023-04-11T09:30:50.633Z,1.48
2023-04-11T09:34:52.041Z,0.95
2023-04-11T09:38:53.894Z,1.17
2023-04-11T09:42:58.226Z,1.75
2023-04-11T09:46:59.967Z,1.42
2023-04-11T09:51:05.825Z,1.63
2023-04-11T09:55:08.091Z,0.80
2023-04-11T09:59:09.671Z,0.98
2023-04-11T10:03:11.148Z,1.05
2023-04-11T10:07:14.211Z,1.20
2023-04-11T10:11:18.493Z,1.17
2023-04-11T10:15:20.056Z,1.23
2023-04-11T10:19:21.621Z,1.52
2023-04-11T10:23:23.039Z,1.13
2023-04-11T10:27:49.938Z,1.38
2023-04-11T10:32:12.823Z,1.15
2023-04-11T10:36:14.296Z,0.60
2023-04-11T10:40:16.204Z,0.95
2023-04-11T10:44:23.266Z,1.08
2023-04-11T10:48:24.642Z,0.85
2023-04-11T10:52:27.114Z,1.20
2023-04-11T10:56:57.768Z,1.20
2023-04-11T11:05:02.354Z,0.98
2023-04-11T11:09:21.338Z,1.67
2023-04-11T11:13:22.705Z,0.90
2023-04-11T11:17:24.260Z,1.92
2023-04-11T11:21:28.641Z,1.00
2023-04-11T11:25:31.027Z,0.98
2023-04-11T11:29:35.695Z,0.82
2023-04-11T11:33:40.705Z,0.75
2023-04-11T11:37:42.310Z,0.85
2023-04-11T11:41:43.759Z,0.38
2023-04-11T11:45:45.675Z,0.50
2023-04-11T11:49:52.544Z,0.73
2023-04-11T11:54:11.233Z,0.90
2023-04-11T11:58:12.670Z,0.50
2023-04-11T12:02:16.259Z,0.30
2023-04-11T12:06:17.861Z,0.68
2023-04-11T12:10:19.247Z,0.55
2023-04-11T12:14:23.835Z,0.30
2023-04-11T12:18:28.374Z,0.82
2023-04-11T12:22:29.741Z,0.40
2023-04-11T12:26:31.107Z,1.20
2023-04-11T12:30:32.876Z,0.60
2023-04-11T12:34:34.272Z,0.60
2023-04-11T12:38:35.668Z,0.75
2023-04-11T12:46:45.533Z,0.40
2023-04-11T12:50:46.922Z,0.47
2023-04-11T12:54:48.302Z,0.47
2023-04-11T12:58:49.720Z,0.55
2023-04-11T13:02:51.800Z,0.77
2023-04-11T13:06:53.343Z,0.60
2023-04-11T13:10:55.939Z,0.47
2023-04-11T13:14:57.414Z,0.77
2023-04-11T13:18:58.893Z,0.40
2023-04-11T13:23:00.438Z,0.38
2023-04-11T13:27:01.847Z,0.77
2023-04-11T13:31:03.268Z,0.20
2023-04-11T13:35:05.800Z,0.77
2023-04-11T13:39:07.812Z,0.35
2023-04-11T13:43:09.893Z,0.20
2023-04-11T13:47:11.350Z,0.95
2023-04-11T13:51:13.166Z,0.60
2023-04-11T13:55:14.734Z,0.77
2023-04-11T13:59:16.222Z,0.47
2023-04-11T14:03:17.975Z,1.23
2023-04-11T14:07:19.447Z,0.98
2023-04-11T14:11:21.028Z,0.52
2023-04-11T14:15:22.541Z,0.82
2023-04-11T14:19:24.846Z,0.45
2023-04-11T14:23:26.650Z,0.40
2023-04-11T14:27:28.168Z,0.45
2023-04-11T14:31:29.747Z,0.55
2023-04-11T14:35:31.458Z,0.43
2023-04-11T14:39:33.006Z,0.57
2023-04-11T14:43:34.437Z,0.52
2023-04-11T14:47:35.986Z,0.20
2023-04-11T14:51:38.728Z,0.45
2023-04-11T14:55:42.727Z,0.63
2023-04-11T14:59:44.227Z,0.75
2023-04-11T15:03:46.182Z,0.45
2023-04-11T15:07:49.985Z,0.32
2023-04-11T15:11:51.541Z,0.57
2023-04-11T15:15:53.557Z,0.30
2023-04-11T15:19:54.975Z,0.20
2023-04-11T15:23:56.474Z,0.60
2023-04-11T15:27:57.986Z,0.70
2023-04-11T15:32:02.924Z,0.30
2023-04-11T15:36:04.836Z,0.30
2023-04-11T15:40:07.104Z,0.30
2023-04-11T15:44:08.913Z,0.30
2023-04-11T15:48:13.796Z,0.30
2023-04-11T15:52:16.644Z,0.30
2023-04-11T15:56:19.967Z,0.30
2023-04-11T16:00:24.366Z,0.30
2023-04-11T16:04:27.079Z,0.35
2023-04-11T16:08:29.542Z,0.43
2023-04-11T16:12:30.962Z,0.20
2023-04-11T16:16:32.450Z,0.28
2023-04-11T16:20:34.039Z,0.45
2023-04-11T16:24:35.582Z,0.20
2023-04-11T16:28:36.950Z,0.75
2023-04-11T16:32:38.540Z,0.50
2023-04-11T16:36:40.059Z,0.30
2023-04-11T16:40:41.441Z,0.40
2023-04-11T16:44:42.916Z,0.68
2023-04-11T16:48:44.361Z,0.85
2023-04-11T16:52:45.962Z,0.28
2023-04-11T16:56:48.033Z,0.40
2023-04-11T17:00:51.022Z,0.63
2023-04-11T17:04:52.833Z,0.57
2023-04-11T17:08:54.311Z,0.20
2023-04-11T17:12:58.203Z,0.30
2023-04-11T17:16:59.621Z,0.28
2023-04-11T17:21:01.171Z,0.47
2023-04-11T17:25:02.794Z,0.40
2023-04-11T17:29:06.425Z,0.30
2023-04-11T17:33:08.595Z,0.40
2023-04-11T17:37:10.065Z,0.43
2023-04-11T17:41:14.944Z,0.30
2023-04-11T17:45:18.566Z,0.40
2023-04-11T17:49:21.527Z,0.75
2023-04-11T17:53:22.961Z,0.30
2023-04-11T17:57:24.330Z,0.40
2023-04-11T18:01:31.904Z,0.63
2023-04-11T18:05:34.891Z,0.68
2023-04-11T18:09:36.239Z,0.40
2023-04-11T18:13:37.600Z,0.50
2023-04-11T18:17:40.450Z,0.47
2023-04-11T18:21:41.857Z,0.20
2023-04-11T18:25:43.258Z,0.60
2023-04-11T18:29:45.299Z,0.50
2023-04-11T18:33:47.989Z,0.68
2023-04-11T18:37:50.216Z,0.30
2023-04-11T18:41:51.608Z,0.70
2023-04-11T18:45:53.080Z,0.68
2023-04-11T18:49:54.527Z,0.47
2023-04-11T18:53:56.422Z,0.82
2023-04-11T18:58:00.450Z,0.47
2023-04-11T19:02:02.523Z,0.47
2023-04-11T19:06:04.986Z,0.30
2023-04-11T19:10:08.022Z,0.20
2023-04-11T19:14:09.520Z,0.30
2023-04-11T19:18:11.150Z,0.22
2023-04-11T19:22:12.572Z,0.50
2023-04-11T19:26:14.729Z,0.52
2023-04-11T19:30:16.269Z,0.38
2023-04-11T19:34:17.641Z,0.60
2023-04-11T19:38:18.993Z,0.90
2023-04-11T19:42:20.400Z,0.60
2023-04-11T19:46:21.902Z,0.63
2023-04-11T19:50:23.386Z,0.68
2023-04-11T19:54:24.834Z,0.57
2023-04-11T19:58:26.540Z,0.50
2023-04-11T20:02:28.061Z,0.47
2023-04-11T20:06:29.580Z,0.35
2023-04-11T20:10:31.583Z,0.40
2023-04-11T20:14:33.448Z,0.90
2023-04-11T20:18:34.871Z,0.50
2023-04-11T20:22:38.210Z,0.77
2023-04-11T20:26:39.710Z,0.35
2023-04-11T20:30:41.126Z,0.50
2023-04-11T20:34:42.519Z,0.32
2023-04-11T20:38:44.003Z,0.30
2023-04-11T20:42:45.967Z,0.25
2023-04-11T20:46:47.990Z,0.40
2023-04-11T20:50:49.940Z,0.35
2023-04-11T20:54:51.299Z,0.30
2023-04-11T20:58:52.675Z,0.55
2023-04-11T21:02:54.202Z,0.65
2023-04-11T21:06:56.814Z,0.75
2023-04-11T21:10:58.273Z,0.50
2023-04-11T21:14:59.834Z,0.40
2023-04-11T21:19:01.219Z,0.85
2023-04-11T21:23:02.767Z,0.40
2023-04-11T21:27:04.230Z,0.35
2023-04-11T21:31:06.059Z,0.68
2023-04-11T21:35:09.719Z,0.32
2023-04-11T21:39:11.357Z,0.68
2023-04-11T21:43:13.108Z,0.52
2023-04-11T21:47:14.586Z,0.45
2023-04-11T21:51:16.495Z,0.80
2023-04-11T21:55:18.005Z,0.40
2023-04-11T21:59:19.493Z,0.82
2023-04-11T22:03:21.016Z,0.40
2023-04-11T22:07:26.388Z,0.30
2023-04-11T22:11:27.827Z,0.55
2023-04-11T22:15:33.084Z,0.40
2023-04-11T22:19:35.014Z,0.75
2023-04-11T22:23:36.376Z,0.32
2023-04-11T22:27:38.254Z,0.40
2023-04-11T22:31:39.667Z,0.63
2023-04-11T22:35:43.850Z,0.50
2023-04-11T22:39:45.580Z,0.40
2023-04-11T22:43:46.950Z,0.55
2023-04-11T22:47:48.396Z,0.55
2023-04-11T22:51:49.835Z,0.50
2023-04-11T22:55:51.618Z,0.40
2023-04-11T22:59:52.966Z,0.70
2023-04-11T23:03:54.456Z,0.45
2023-04-11T23:07:55.886Z,0.95
2023-04-11T23:11:57.289Z,0.68
2023-04-11T23:16:01.505Z,0.52
2023-04-11T23:20:12.543Z,0.35
2023-04-11T23:24:13.976Z,0.63
2023-04-11T23:28:15.840Z,0.98
2023-04-11T23:32:18.779Z,1.10
2023-04-11T23:36:20.259Z,1.35
2023-04-11T23:40:22.691Z,0.70
2023-04-11T23:44:24.050Z,1.35
2023-04-11T23:48:25.405Z,0.73
2023-04-11T23:52:26.895Z,0.70
2023-04-11T23:56:28.424Z,0.93
